createdAt,value
2018-03-16T00:00:00.154Z,54.26
2018-03-16T00:01:02.658Z,54.29
2018-03-16T00:02:05.215Z,54.25
2018-03-16T00:03:07.708Z,54.27
2018-03-16T00:04:10.213Z,54.34
2018-03-16T00:05:12.721Z,54.49
2018-03-16T00:06:15.206Z,54.84
2018-03-16T00:07:17.775Z,55.20
2018-03-16T00:08:20.276Z,55.08
2018-03-16T00:09:22.811Z,55.09
2018-03-16T00:10:25.308Z,55.13
2018-03-16T00:11:27.816Z,55.65
2018-03-16T00:12:30.361Z,55.50
2018-03-16T00:13:32.883Z,55.23
2018-03-16T00:14:35.389Z,55.16
2018-03-16T00:15:37.885Z,55.18
2018-03-16T00:16:40.394Z,55.15
2018-03-16T00:17:42.928Z,55.18
2018-03-16T00:18:45.441Z,55.17
2018-03-16T00:19:47.926Z,55.12
2018-03-16T00:20:50.444Z,55.12
2018-03-16T00:21:52.954Z,55.09
2018-03-16T00:22:55.474Z,55.48
2018-03-16T00:23:57.985Z,55.48
2018-03-16T00:25:00.470Z,55.94
2018-03-16T00:26:02.963Z,55.82
2018-03-16T00:27:05.458Z,55.70
2018-03-16T00:28:08.019Z,55.71
2018-03-16T00:29:10.517Z,55.70
2018-03-16T00:30:13.031Z,55.62
2018-03-16T00:31:15.539Z,55.62
2018-03-16T00:32:18.031Z,55.62
2018-03-16T00:33:20.564Z,55.61
2018-03-16T00:34:23.065Z,55.62
2018-03-16T00:35:25.559Z,55.61
2018-03-16T00:36:28.052Z,55.59
2018-03-16T00:37:30.557Z,55.46
2018-03-16T00:38:33.083Z,55.52
2018-03-16T00:39:35.584Z,55.55
2018-03-16T00:40:38.085Z,55.62
2018-03-16T00:41:40.608Z,56.18
2018-03-16T00:42:43.122Z,56.09
2018-03-16T00:43:45.635Z,55.80
2018-03-16T00:44:48.140Z,55.66
2018-03-16T00:45:50.651Z,55.60
2018-03-16T00:46:53.153Z,55.50
2018-03-16T00:47:55.683Z,55.41
2018-03-16T00:48:58.190Z,55.42
2018-03-16T00:50:00.706Z,55.47
2018-03-16T00:51:03.223Z,55.42
2018-03-16T00:52:05.728Z,55.43
2018-03-16T00:53:08.287Z,55.44
2018-03-16T00:54:10.786Z,55.39
2018-03-16T00:55:13.293Z,55.48
2018-03-16T00:56:15.775Z,55.46
2018-03-16T00:57:18.282Z,55.54
2018-03-16T00:58:20.779Z,55.48
2018-03-16T00:59:23.282Z,55.53
2018-03-16T01:00:25.790Z,55.56
2018-03-16T01:01:28.293Z,55.60
2018-03-16T01:02:30.804Z,55.63
2018-03-16T01:03:33.308Z,55.57
2018-03-16T01:04:35.836Z,55.53
2018-03-16T01:05:38.331Z,55.53
2018-03-16T01:06:40.842Z,55.54
2018-03-16T01:07:43.340Z,55.51
2018-03-16T01:08:45.869Z,55.54
2018-03-16T01:09:48.379Z,55.69
2018-03-16T01:10:50.894Z,56.25
2018-03-16T01:11:53.411Z,56.18
2018-03-16T01:12:55.925Z,56.22
2018-03-16T01:13:58.424Z,56.30
2018-03-16T01:15:00.955Z,56.20
2018-03-16T01:16:03.464Z,56.28
2018-03-16T01:17:05.951Z,56.36
2018-03-16T01:18:08.458Z,56.39
2018-03-16T01:19:10.969Z,56.37
2018-03-16T01:20:13.510Z,56.26
2018-03-16T01:21:16.012Z,56.28
2018-03-16T01:22:18.527Z,56.24
2018-03-16T01:23:21.036Z,56.30
2018-03-16T01:24:23.527Z,56.66
2018-03-16T01:25:26.070Z,56.87
2018-03-16T01:26:28.564Z,56.67
2018-03-16T01:27:32.265Z,56.56
2018-03-16T01:28:34.780Z,56.50
2018-03-16T01:29:37.282Z,56.36
2018-03-16T01:30:39.824Z,56.34
2018-03-16T01:31:42.337Z,56.30
2018-03-16T01:32:44.907Z,56.31
2018-03-16T01:33:47.399Z,56.26
2018-03-16T01:34:49.920Z,56.21
2018-03-16T01:35:52.438Z,56.24
2018-03-16T01:36:54.965Z,56.40
2018-03-16T01:37:57.484Z,56.38
2018-03-16T01:38:59.990Z,56.41
2018-03-16T01:40:02.507Z,57.24
2018-03-16T01:41:05.018Z,56.98
2018-03-16T01:42:07.519Z,57.17
2018-03-16T01:43:10.021Z,57.06
2018-03-16T01:44:12.537Z,56.96
2018-03-16T01:45:15.024Z,56.76
2018-03-16T01:46:17.549Z,56.73
2018-03-16T01:47:20.086Z,56.71
2018-03-16T01:48:22.600Z,56.70
2018-03-16T01:49:25.117Z,56.63
2018-03-16T01:50:27.638Z,56.62
2018-03-16T01:51:30.146Z,56.74
2018-03-16T01:52:32.644Z,56.61
2018-03-16T01:53:35.163Z,56.64
2018-03-16T01:54:37.676Z,56.74
2018-03-16T01:55:40.186Z,56.64
2018-03-16T01:56:42.727Z,56.72
2018-03-16T01:57:45.329Z,56.74
2018-03-16T01:58:47.836Z,56.70
2018-03-16T01:59:50.323Z,56.84
2018-03-16T02:00:52.843Z,57.37
2018-03-16T02:01:55.399Z,57.45
2018-03-16T02:02:57.928Z,57.39
2018-03-16T02:04:00.428Z,57.32
2018-03-16T02:05:02.955Z,57.30
2018-03-16T02:06:05.443Z,57.31
2018-03-16T02:07:07.966Z,57.29
2018-03-16T02:08:10.470Z,57.25
2018-03-16T02:09:12.959Z,57.17
2018-03-16T02:10:15.469Z,57.19
2018-03-16T02:11:17.997Z,57.29
2018-03-16T02:12:20.529Z,57.38
2018-03-16T02:13:23.046Z,57.37
2018-03-16T02:14:25.562Z,57.42
2018-03-16T02:15:28.055Z,57.30
2018-03-16T02:16:30.571Z,57.30
2018-03-16T02:17:33.078Z,57.40
2018-03-16T02:18:35.568Z,57.50
2018-03-16T02:19:38.076Z,57.44
2018-03-16T02:20:40.603Z,57.39
2018-03-16T02:21:43.143Z,57.43
2018-03-16T02:22:45.679Z,57.77
2018-03-16T02:23:48.185Z,57.53
2018-03-16T02:24:50.687Z,57.27
2018-03-16T02:25:53.206Z,56.99
2018-03-16T02:26:55.699Z,56.94
2018-03-16T02:27:58.230Z,56.88
2018-03-16T02:29:00.733Z,56.82
2018-03-16T02:30:03.282Z,56.87
2018-03-16T02:31:05.844Z,56.82
2018-03-16T02:32:08.367Z,56.74
2018-03-16T02:33:10.904Z,56.78
2018-03-16T02:34:13.422Z,56.93
2018-03-16T02:35:16.084Z,56.89
2018-03-16T02:36:18.600Z,56.88
2018-03-16T02:37:21.109Z,56.84
2018-03-16T02:38:23.620Z,56.87
2018-03-16T02:39:26.162Z,56.85
2018-03-16T02:40:28.669Z,56.82
2018-03-16T02:41:31.192Z,56.89
2018-03-16T02:42:33.699Z,56.91
2018-03-16T02:43:36.234Z,57.08
2018-03-16T02:44:38.748Z,57.13
2018-03-16T02:45:41.263Z,57.12
2018-03-16T02:46:43.770Z,57.07
2018-03-16T02:47:46.296Z,57.02
2018-03-16T02:48:48.799Z,57.07
2018-03-16T02:49:51.327Z,57.09
2018-03-16T02:50:53.832Z,57.01
2018-03-16T02:51:56.338Z,57.05
2018-03-16T02:52:58.889Z,57.19
2018-03-16T02:54:01.411Z,57.19
2018-03-16T02:55:03.979Z,57.16
2018-03-16T02:56:06.491Z,57.21
2018-03-16T02:57:08.997Z,57.19
2018-03-16T02:58:11.504Z,57.21
2018-03-16T02:59:14.018Z,57.40
2018-03-16T03:00:16.524Z,57.88
2018-03-16T03:01:19.045Z,57.81
2018-03-16T03:02:21.553Z,57.54
2018-03-16T03:03:24.057Z,57.39
2018-03-16T03:04:26.747Z,57.35
2018-03-16T03:05:29.304Z,57.31
2018-03-16T03:06:31.809Z,57.31
2018-03-16T03:07:34.316Z,57.27
2018-03-16T03:08:36.836Z,57.28
2018-03-16T03:09:39.356Z,57.16
2018-03-16T03:10:41.878Z,57.33
2018-03-16T03:11:44.380Z,57.53
2018-03-16T03:12:46.902Z,57.54
2018-03-16T03:13:49.409Z,57.50
2018-03-16T03:14:51.918Z,57.48
2018-03-16T03:15:54.553Z,57.49
2018-03-16T03:16:57.052Z,57.58
2018-03-16T03:17:59.550Z,57.87
2018-03-16T03:19:02.057Z,57.94
2018-03-16T03:20:04.563Z,57.86
2018-03-16T03:21:07.060Z,57.68
2018-03-16T03:22:09.571Z,57.65
2018-03-16T03:23:12.065Z,57.52
2018-03-16T03:24:14.577Z,57.52
2018-03-16T03:25:17.124Z,57.79
2018-03-16T03:26:19.629Z,57.66
2018-03-16T03:27:22.136Z,57.58
2018-03-16T03:28:24.647Z,57.57
2018-03-16T03:29:27.152Z,57.55
2018-03-16T03:30:29.700Z,57.50
2018-03-16T03:31:32.221Z,57.45
2018-03-16T03:32:34.714Z,57.41
2018-03-16T03:33:37.224Z,57.38
2018-03-16T03:34:39.722Z,57.36
2018-03-16T03:35:42.225Z,57.38
2018-03-16T03:36:44.714Z,57.47
2018-03-16T03:37:47.199Z,57.57
2018-03-16T03:38:49.690Z,57.55
2018-03-16T03:39:52.185Z,57.49
2018-03-16T03:40:54.694Z,57.44
2018-03-16T03:41:57.227Z,57.44
2018-03-16T03:42:59.732Z,57.57
2018-03-16T03:44:02.234Z,58.01
2018-03-16T03:45:04.733Z,58.02
2018-03-16T03:46:07.252Z,57.97
2018-03-16T03:47:09.772Z,57.97
2018-03-16T03:48:12.286Z,57.92
2018-03-16T03:49:14.796Z,58.05
2018-03-16T03:50:17.286Z,57.96
2018-03-16T03:51:19.794Z,57.99
2018-03-16T03:52:22.289Z,57.98
2018-03-16T03:53:24.792Z,57.98
2018-03-16T03:54:27.290Z,57.94
2018-03-16T03:55:29.790Z,58.02
2018-03-16T03:56:32.331Z,58.13
2018-03-16T03:57:34.820Z,58.24
2018-03-16T03:58:37.303Z,58.09
2018-03-16T03:59:39.804Z,57.94
2018-03-16T04:00:42.304Z,57.83
2018-03-16T04:01:44.825Z,57.87
2018-03-16T04:02:47.348Z,57.82
2018-03-16T04:03:49.890Z,57.77
2018-03-16T04:04:52.377Z,57.88
2018-03-16T04:05:54.932Z,57.88
2018-03-16T04:06:57.403Z,57.89
2018-03-16T04:07:59.915Z,58.13
2018-03-16T04:09:02.420Z,58.23
2018-03-16T04:10:04.933Z,58.28
2018-03-16T04:11:07.445Z,58.69
2018-03-16T04:12:09.999Z,58.57
2018-03-16T04:13:12.525Z,58.30
2018-03-16T04:14:15.043Z,58.27
2018-03-16T04:15:17.538Z,58.22
2018-03-16T04:16:20.055Z,58.75
2018-03-16T04:17:22.573Z,58.97
2018-03-16T04:18:25.091Z,59.18
2018-03-16T04:19:27.605Z,59.36
2018-03-16T04:20:30.113Z,59.18
2018-03-16T04:21:32.629Z,59.12
2018-03-16T04:22:35.164Z,59.01
2018-03-16T04:23:37.675Z,58.88
2018-03-16T04:24:40.163Z,59.13
2018-03-16T04:25:42.673Z,59.03
2018-03-16T04:26:45.176Z,58.93
2018-03-16T04:27:47.702Z,59.00
2018-03-16T04:28:50.204Z,59.02
2018-03-16T04:29:52.694Z,58.90
2018-03-16T04:30:55.200Z,58.89
2018-03-16T04:31:57.690Z,59.00
2018-03-16T04:33:00.229Z,58.80
2018-03-16T04:34:03.019Z,58.66
2018-03-16T04:35:05.529Z,58.46
2018-03-16T04:36:08.027Z,58.69
2018-03-16T04:37:10.522Z,58.97
2018-03-16T04:38:13.057Z,59.42
2018-03-16T04:39:15.547Z,59.31
2018-03-16T04:40:18.057Z,59.06
2018-03-16T04:41:20.554Z,59.01
2018-03-16T04:42:23.154Z,59.07
2018-03-16T04:43:25.678Z,59.07
2018-03-16T04:44:28.272Z,59.06
2018-03-16T04:45:30.776Z,59.03
2018-03-16T04:46:33.285Z,59.04
2018-03-16T04:47:35.788Z,59.08
2018-03-16T04:48:38.346Z,59.06
2018-03-16T04:49:40.868Z,59.04
2018-03-16T04:50:43.386Z,58.98
2018-03-16T04:51:45.898Z,59.15
2018-03-16T04:52:48.420Z,59.18
2018-03-16T04:53:50.945Z,59.56
2018-03-16T04:54:53.434Z,59.47
2018-03-16T04:55:55.975Z,59.22
2018-03-16T04:56:58.467Z,59.17
2018-03-16T04:58:00.970Z,59.33
2018-03-16T04:59:03.501Z,59.12
2018-03-16T05:00:06.007Z,58.93
2018-03-16T05:01:08.510Z,58.88
2018-03-16T05:02:10.999Z,58.87
2018-03-16T05:03:13.556Z,58.68
2018-03-16T05:04:16.050Z,58.53
2018-03-16T05:05:18.562Z,58.42
2018-03-16T05:06:21.083Z,58.30
2018-03-16T05:07:23.598Z,58.31
2018-03-16T05:08:26.106Z,58.17
2018-03-16T05:09:28.634Z,58.00
2018-03-16T05:10:31.153Z,57.93
2018-03-16T05:11:33.676Z,57.90
2018-03-16T05:12:36.188Z,57.81
2018-03-16T05:13:38.715Z,57.99
2018-03-16T05:14:41.241Z,57.83
2018-03-16T05:15:43.752Z,57.70
2018-03-16T05:16:46.252Z,57.77
2018-03-16T05:17:48.759Z,57.84
2018-03-16T05:18:51.264Z,57.94
2018-03-16T05:19:53.822Z,57.99
2018-03-16T05:20:56.398Z,57.87
2018-03-16T05:21:58.904Z,57.80
2018-03-16T05:23:01.424Z,58.03
2018-03-16T05:24:03.915Z,58.15
2018-03-16T05:25:06.426Z,58.35
2018-03-16T05:26:08.954Z,58.19
2018-03-16T05:27:11.469Z,58.44
2018-03-16T05:28:13.997Z,58.37
2018-03-16T05:29:16.544Z,58.35
2018-03-16T05:30:19.089Z,58.39
2018-03-16T05:31:21.859Z,58.34
2018-03-16T05:32:24.397Z,57.94
2018-03-16T05:33:26.921Z,58.03
2018-03-16T05:34:29.438Z,58.10
2018-03-16T05:35:31.969Z,58.17
2018-03-16T05:36:34.494Z,58.16
2018-03-16T05:37:37.037Z,58.30
2018-03-16T05:38:41.527Z,58.38
2018-03-16T05:39:44.051Z,58.48
2018-03-16T05:40:46.629Z,58.71
2018-03-16T05:41:49.108Z,58.80
2018-03-16T05:42:51.656Z,58.77
2018-03-16T05:43:54.173Z,58.77
2018-03-16T05:44:56.681Z,58.88
2018-03-16T05:45:59.211Z,58.92
2018-03-16T05:47:01.700Z,58.96
2018-03-16T05:48:04.257Z,59.03
2018-03-16T05:49:06.761Z,58.92
2018-03-16T05:50:09.296Z,59.00
2018-03-16T05:51:11.941Z,59.17
2018-03-16T05:52:14.639Z,59.03
2018-03-16T05:53:17.382Z,59.00
2018-03-16T05:54:19.893Z,58.96
2018-03-16T05:55:22.399Z,58.94
2018-03-16T05:56:24.925Z,58.91
2018-03-16T05:57:27.424Z,58.91
2018-03-16T05:58:29.939Z,58.87
2018-03-16T05:59:32.448Z,58.93
2018-03-16T06:00:34.970Z,58.97
2018-03-16T06:01:37.538Z,58.95
2018-03-16T06:02:40.055Z,58.92
2018-03-16T06:03:42.560Z,58.98
2018-03-16T06:04:45.061Z,58.87
2018-03-16T06:05:47.590Z,58.78
2018-03-16T06:06:50.115Z,58.85
2018-03-16T06:07:52.610Z,58.89
2018-03-16T06:08:55.114Z,58.93
2018-03-16T06:09:57.654Z,59.04
2018-03-16T06:11:00.165Z,59.05
2018-03-16T06:12:02.717Z,59.12
2018-03-16T06:13:05.229Z,59.18
2018-03-16T06:14:07.748Z,59.26
2018-03-16T06:15:10.280Z,59.29
2018-03-16T06:16:12.799Z,59.38
2018-03-16T06:17:15.316Z,59.43
2018-03-16T06:18:17.833Z,59.31
2018-03-16T06:19:20.326Z,59.27
2018-03-16T06:20:22.862Z,59.25
2018-03-16T06:21:25.380Z,59.30
2018-03-16T06:22:27.923Z,59.38
2018-03-16T06:23:30.443Z,59.39
2018-03-16T06:24:32.943Z,59.37
2018-03-16T06:25:35.444Z,59.73
2018-03-16T06:26:37.968Z,59.63
2018-03-16T06:27:40.505Z,59.44
2018-03-16T06:28:43.019Z,59.41
2018-03-16T06:29:45.526Z,59.42
2018-03-16T06:30:48.023Z,59.57
2018-03-16T06:31:50.527Z,59.64
2018-03-16T06:32:53.039Z,59.68
2018-03-16T06:33:55.538Z,59.72
2018-03-16T06:34:58.038Z,59.82
2018-03-16T06:36:00.561Z,59.92
2018-03-16T06:37:03.163Z,59.86
2018-03-16T06:38:05.697Z,59.83
2018-03-16T06:39:08.488Z,59.77
2018-03-16T06:40:11.256Z,59.74
2018-03-16T06:41:13.784Z,59.77
2018-03-16T06:42:16.288Z,59.79
2018-03-16T06:43:18.840Z,59.79
2018-03-16T06:44:21.494Z,59.81
2018-03-16T06:45:24.053Z,59.74
2018-03-16T06:46:26.563Z,59.83
2018-03-16T06:47:29.125Z,59.84
2018-03-16T06:48:31.735Z,59.80
2018-03-16T06:49:34.295Z,59.77
2018-03-16T06:50:36.827Z,59.80
2018-03-16T06:51:39.358Z,59.85
2018-03-16T06:52:41.884Z,59.83
2018-03-16T06:53:44.486Z,59.68
2018-03-16T06:54:46.999Z,59.49
2018-03-16T06:55:49.518Z,59.48
2018-03-16T06:56:52.069Z,59.37
2018-03-16T06:57:54.581Z,59.29
2018-03-16T06:58:57.094Z,59.25
2018-03-16T06:59:59.605Z,59.12
2018-03-16T07:01:02.113Z,59.08
2018-03-16T07:02:04.614Z,58.77
2018-03-16T07:03:07.115Z,58.77
2018-03-16T07:04:10.499Z,58.61
2018-03-16T07:05:13.019Z,58.55
2018-03-16T07:06:15.533Z,58.69
2018-03-16T07:07:18.050Z,58.37
2018-03-16T07:08:20.579Z,58.31
2018-03-16T07:09:23.116Z,58.26
2018-03-16T07:10:25.616Z,58.29
2018-03-16T07:11:28.117Z,58.47
2018-03-16T07:12:30.629Z,58.40
2018-03-16T07:13:33.125Z,58.38
2018-03-16T07:14:35.636Z,58.39
2018-03-16T07:15:38.138Z,58.49
2018-03-16T07:16:40.631Z,58.43
2018-03-16T07:17:43.135Z,58.48
2018-03-16T07:18:45.643Z,58.45
2018-03-16T07:19:48.154Z,58.43
2018-03-16T07:20:50.651Z,58.46
2018-03-16T07:21:53.142Z,58.42
2018-03-16T07:22:55.649Z,58.42
2018-03-16T07:23:58.174Z,58.46
2018-03-16T07:25:00.708Z,58.63
2018-03-16T07:26:03.203Z,58.62
2018-03-16T07:27:05.693Z,58.58
2018-03-16T07:28:08.197Z,58.76
2018-03-16T07:29:10.712Z,58.75
2018-03-16T07:30:13.253Z,58.53
2018-03-16T07:31:15.761Z,58.37
2018-03-16T07:32:18.285Z,58.41
2018-03-16T07:33:20.799Z,58.47
2018-03-16T07:34:23.301Z,58.46
2018-03-16T07:35:25.811Z,58.47
2018-03-16T07:36:28.307Z,58.62
2018-03-16T07:37:30.817Z,58.60
2018-03-16T07:38:33.313Z,58.62
2018-03-16T07:39:35.851Z,58.73
2018-03-16T07:40:38.358Z,58.95
2018-03-16T07:41:40.863Z,59.35
2018-03-16T07:42:43.347Z,59.48
2018-03-16T07:43:45.831Z,59.52
2018-03-16T07:44:48.323Z,59.62
2018-03-16T07:45:56.481Z,59.74
2018-03-16T07:46:58.989Z,59.75
2018-03-16T07:48:01.499Z,59.77
2018-03-16T07:49:04.003Z,59.85
2018-03-16T07:50:06.504Z,59.93
2018-03-16T07:51:09.048Z,60.02
2018-03-16T07:52:11.613Z,59.99
2018-03-16T07:53:14.077Z,59.99
2018-03-16T07:54:16.600Z,60.10
2018-03-16T07:55:19.114Z,60.04
2018-03-16T07:56:21.741Z,60.00
2018-03-16T07:57:24.239Z,60.04
2018-03-16T07:58:26.752Z,60.08
2018-03-16T07:59:29.250Z,60.09
2018-03-16T08:00:31.735Z,59.98
2018-03-16T08:01:34.349Z,59.89
2018-03-16T08:02:36.856Z,59.91
2018-03-16T08:03:39.355Z,60.01
2018-03-16T08:04:41.860Z,60.07
2018-03-16T08:05:44.380Z,60.21
2018-03-16T08:06:47.149Z,60.31
2018-03-16T08:07:49.656Z,60.19
2018-03-16T08:08:52.164Z,60.10
2018-03-16T08:09:54.692Z,60.04
2018-03-16T08:10:57.197Z,60.05
2018-03-16T08:11:59.721Z,60.16
2018-03-16T08:13:02.242Z,60.27
2018-03-16T08:14:04.751Z,60.22
2018-03-16T08:15:07.295Z,60.21
2018-03-16T08:16:09.808Z,60.18
2018-03-16T08:17:12.348Z,60.19
2018-03-16T08:18:14.843Z,60.22
2018-03-16T08:19:17.348Z,60.23
2018-03-16T08:20:19.835Z,60.25
2018-03-16T08:21:22.415Z,60.25
2018-03-16T08:22:24.976Z,60.24
2018-03-16T08:23:27.499Z,60.13
2018-03-16T08:24:30.014Z,60.08
2018-03-16T08:25:32.533Z,60.16
2018-03-16T08:26:35.036Z,60.26
2018-03-16T08:27:37.571Z,60.74
2018-03-16T08:28:40.091Z,60.46
2018-03-16T08:29:42.618Z,60.44
2018-03-16T08:30:45.105Z,60.16
2018-03-16T08:31:47.779Z,60.02
2018-03-16T08:32:50.320Z,60.29
2018-03-16T08:33:52.830Z,60.64
2018-03-16T08:34:55.332Z,59.76
2018-03-16T08:35:57.907Z,58.57
2018-03-16T08:37:00.534Z,57.62
2018-03-16T08:38:03.074Z,55.40
2018-03-16T08:39:05.661Z,54.67
2018-03-16T08:40:08.157Z,54.08
2018-03-16T08:41:10.655Z,53.16
2018-03-16T08:42:13.175Z,52.53
2018-03-16T08:43:15.714Z,52.90
2018-03-16T08:44:18.235Z,52.82
2018-03-16T08:45:20.807Z,52.61
2018-03-16T08:46:23.331Z,52.38
2018-03-16T08:47:25.836Z,52.43
2018-03-16T08:48:28.379Z,51.97
2018-03-16T08:49:30.881Z,51.85
2018-03-16T08:50:33.400Z,51.89
2018-03-16T08:51:35.998Z,52.13
2018-03-16T08:52:38.516Z,52.32
2018-03-16T08:53:41.055Z,52.41
2018-03-16T08:54:43.574Z,52.68
2018-03-16T08:55:46.089Z,52.86
2018-03-16T08:56:48.602Z,52.90
2018-03-16T08:57:51.105Z,52.92
2018-03-16T08:58:53.649Z,52.96
2018-03-16T08:59:56.153Z,53.72
2018-03-16T09:00:58.679Z,53.91
2018-03-16T09:02:01.213Z,54.30
2018-03-16T09:03:03.795Z,55.72
2018-03-16T09:04:06.404Z,55.43
2018-03-16T09:05:08.913Z,55.90
2018-03-16T09:06:11.421Z,55.93
2018-03-16T09:07:13.926Z,56.11
2018-03-16T09:08:16.443Z,55.98
2018-03-16T09:09:18.987Z,55.92
2018-03-16T09:10:21.475Z,55.29
2018-03-16T09:11:23.968Z,55.08
2018-03-16T09:12:26.505Z,54.48
2018-03-16T09:13:29.020Z,54.79
2018-03-16T09:14:31.571Z,54.07
2018-03-16T09:15:34.072Z,53.46
2018-03-16T09:16:36.587Z,53.27
2018-03-16T09:17:39.092Z,53.13
2018-03-16T09:18:41.610Z,52.98
2018-03-16T09:19:44.122Z,52.92
2018-03-16T09:20:46.606Z,52.84
2018-03-16T09:21:49.090Z,52.68
2018-03-16T09:22:51.597Z,53.07
2018-03-16T09:23:54.103Z,53.08
2018-03-16T09:24:56.610Z,53.14
2018-03-16T09:25:59.123Z,52.71
2018-03-16T09:27:01.643Z,52.96
2018-03-16T09:28:04.161Z,53.02
2018-03-16T09:29:06.810Z,53.14
2018-03-16T09:30:09.336Z,53.09
2018-03-16T09:31:11.865Z,52.88
2018-03-16T09:32:14.364Z,52.92
2018-03-16T09:33:16.850Z,53.14
2018-03-16T09:34:19.352Z,53.27
2018-03-16T09:35:21.864Z,53.38
2018-03-16T09:36:24.378Z,53.45
2018-03-16T09:37:26.882Z,53.49
2018-03-16T09:38:29.403Z,53.60
2018-03-16T09:39:31.910Z,53.68
2018-03-16T09:40:34.432Z,53.71
2018-03-16T09:41:36.933Z,53.77
2018-03-16T09:42:39.431Z,53.83
2018-03-16T09:43:41.922Z,53.89
2018-03-16T09:44:44.441Z,53.93
2018-03-16T09:45:46.964Z,53.97
2018-03-16T09:46:49.483Z,54.01
2018-03-16T09:47:52.028Z,54.05
2018-03-16T09:48:54.529Z,54.09
2018-03-16T09:49:57.032Z,54.14
2018-03-16T09:50:59.557Z,54.16
2018-03-16T09:52:02.094Z,54.20
2018-03-16T09:53:04.615Z,54.24
2018-03-16T09:54:07.129Z,54.28
2018-03-16T09:55:21.515Z,54.32
2018-03-16T09:56:24.039Z,54.34
2018-03-16T09:57:26.554Z,54.32
2018-03-16T09:58:29.092Z,54.34
2018-03-16T09:59:31.591Z,54.37
2018-03-16T10:00:34.086Z,54.43
2018-03-16T10:01:36.614Z,54.48
2018-03-16T10:02:39.159Z,54.48
2018-03-16T10:03:41.736Z,54.52
2018-03-16T10:04:44.272Z,54.55
2018-03-16T10:05:46.776Z,54.56
2018-03-16T10:06:49.462Z,54.59
2018-03-16T10:07:52.014Z,54.61
2018-03-16T10:08:54.541Z,54.60
2018-03-16T10:09:57.052Z,54.60
2018-03-16T10:10:59.554Z,54.62
2018-03-16T10:12:02.123Z,54.66
2018-03-16T10:13:04.613Z,54.67
2018-03-16T10:14:07.140Z,54.66
2018-03-16T10:15:09.644Z,54.67
2018-03-16T10:16:12.139Z,54.70
2018-03-16T10:17:14.666Z,54.70
2018-03-16T10:18:17.173Z,54.70
2018-03-16T10:19:19.694Z,54.73
2018-03-16T10:20:22.218Z,54.76
2018-03-16T10:21:24.773Z,54.75
2018-03-16T10:22:27.301Z,54.74
2018-03-16T10:23:29.798Z,54.75
2018-03-16T10:24:32.339Z,54.78
2018-03-16T10:25:34.850Z,54.79
2018-03-16T10:26:37.373Z,54.82
2018-03-16T10:27:39.908Z,54.78
2018-03-16T10:28:42.418Z,54.81
2018-03-16T10:29:44.930Z,54.83
2018-03-16T10:30:47.540Z,54.77
2018-03-16T10:31:50.055Z,54.78
2018-03-16T10:32:52.597Z,54.79
2018-03-16T10:33:55.119Z,54.82
2018-03-16T10:34:57.639Z,54.78
2018-03-16T10:36:00.159Z,54.78
2018-03-16T10:37:02.664Z,54.81
2018-03-16T10:38:05.178Z,54.82
2018-03-16T10:39:07.699Z,54.81
2018-03-16T10:40:10.259Z,54.83
2018-03-16T10:41:12.765Z,54.84
2018-03-16T10:42:15.268Z,54.81
2018-03-16T10:43:17.798Z,54.81
2018-03-16T10:44:20.301Z,54.80
2018-03-16T10:45:22.794Z,54.80
2018-03-16T10:46:25.391Z,54.80
2018-03-16T10:47:27.911Z,54.81
2018-03-16T10:48:30.463Z,54.81
2018-03-16T10:49:32.978Z,54.81
2018-03-16T10:50:35.509Z,54.78
2018-03-16T10:51:38.013Z,54.78
2018-03-16T10:52:40.532Z,54.78
2018-03-16T10:53:43.072Z,54.78
2018-03-16T10:54:45.601Z,54.76
2018-03-16T10:55:48.104Z,54.74
2018-03-16T10:56:50.619Z,54.74
2018-03-16T10:57:53.125Z,54.76
2018-03-16T10:58:55.642Z,54.75
2018-03-16T10:59:58.148Z,54.75
2018-03-16T11:01:00.664Z,54.78
2018-03-16T11:02:08.950Z,54.79
2018-03-16T11:03:15.396Z,54.75
2018-03-16T11:04:17.933Z,54.73
2018-03-16T11:05:26.126Z,54.74
2018-03-16T11:06:34.675Z,54.73
2018-03-16T11:07:47.127Z,54.72
2018-03-16T11:08:49.644Z,54.70
2018-03-16T11:09:52.150Z,54.75
2018-03-16T11:10:54.786Z,54.75
2018-03-16T11:11:57.306Z,54.71
2018-03-16T11:12:59.808Z,54.57
2018-03-16T11:14:02.335Z,54.52
2018-03-16T11:15:04.865Z,54.45
2018-03-16T11:16:07.390Z,54.36
2018-03-16T11:17:09.921Z,54.18
2018-03-16T11:18:12.440Z,54.07
2018-03-16T11:19:14.956Z,53.87
2018-03-16T11:20:17.486Z,53.73
2018-03-16T11:21:19.993Z,53.61
2018-03-16T11:22:22.478Z,53.52
2018-03-16T11:23:24.994Z,53.46
2018-03-16T11:24:27.514Z,53.38
2018-03-16T11:25:30.054Z,53.33
2018-03-16T11:26:32.553Z,53.21
2018-03-16T11:27:35.067Z,53.26
2018-03-16T11:28:37.580Z,53.25
2018-03-16T11:29:40.088Z,53.21
2018-03-16T11:30:42.638Z,53.08
2018-03-16T11:31:45.146Z,53.10
2018-03-16T11:32:47.689Z,53.08
2018-03-16T11:33:50.213Z,52.97
2018-03-16T11:34:52.729Z,52.69
2018-03-16T11:35:55.250Z,52.21
2018-03-16T11:36:57.763Z,52.20
2018-03-16T11:38:00.291Z,52.01
2018-03-16T11:39:02.778Z,52.00
2018-03-16T11:40:05.287Z,52.01
2018-03-16T11:41:07.804Z,51.90
2018-03-16T11:42:10.297Z,51.63
2018-03-16T11:43:12.815Z,51.38
2018-03-16T11:44:15.302Z,51.17
2018-03-16T11:45:17.807Z,50.48
2018-03-16T11:46:20.319Z,50.28
2018-03-16T11:47:22.827Z,49.83
2018-03-16T11:48:25.328Z,49.50
2018-03-16T11:49:27.829Z,49.35
2018-03-16T11:50:30.350Z,49.07
2018-03-16T11:51:32.877Z,49.01
2018-03-16T11:52:35.366Z,48.92
2018-03-16T11:53:37.878Z,48.83
2018-03-16T11:54:40.385Z,48.75
2018-03-16T11:55:42.889Z,48.77
2018-03-16T11:56:45.407Z,48.81
2018-03-16T11:57:47.923Z,48.98
2018-03-16T11:58:50.438Z,48.92
2018-03-16T11:59:52.927Z,48.79
2018-03-16T12:00:55.560Z,48.81
2018-03-16T12:01:58.129Z,48.63
2018-03-16T12:03:00.727Z,48.57
2018-03-16T12:04:03.234Z,48.46
2018-03-16T12:05:05.727Z,48.31
2018-03-16T12:06:08.288Z,48.19
2018-03-16T12:07:10.821Z,48.02
2018-03-16T12:08:13.349Z,47.87
2018-03-16T12:09:15.846Z,47.83
2018-03-16T12:10:18.383Z,47.85
2018-03-16T12:11:20.956Z,47.84
2018-03-16T12:12:23.517Z,47.89
2018-03-16T12:13:26.035Z,47.89
2018-03-16T12:14:28.549Z,47.91
2018-03-16T12:15:31.044Z,47.98
2018-03-16T12:16:33.553Z,48.06
2018-03-16T12:17:36.061Z,48.10
2018-03-16T12:18:38.558Z,48.09
2018-03-16T12:19:41.067Z,48.07
2018-03-16T12:20:43.579Z,48.00
2018-03-16T12:21:46.149Z,47.89
2018-03-16T12:22:48.957Z,47.66
2018-03-16T12:23:51.476Z,47.55
2018-03-16T12:24:53.990Z,47.51
2018-03-16T12:25:56.479Z,47.37
2018-03-16T12:26:58.975Z,47.31
2018-03-16T12:28:01.511Z,47.35
2018-03-16T12:29:04.020Z,47.36
2018-03-16T12:30:06.539Z,47.35
2018-03-16T12:31:09.064Z,47.42
2018-03-16T12:32:11.557Z,47.49
2018-03-16T12:33:14.094Z,47.53
2018-03-16T12:34:16.609Z,47.60
2018-03-16T12:35:19.138Z,47.61
2018-03-16T12:36:21.785Z,47.59
2018-03-16T12:37:24.351Z,47.51
2018-03-16T12:38:26.880Z,47.44
2018-03-16T12:39:29.383Z,47.33
2018-03-16T12:40:31.942Z,47.23
2018-03-16T12:41:34.466Z,47.12
2018-03-16T12:42:37.093Z,47.02
2018-03-16T12:43:39.622Z,47.00
2018-03-16T12:44:42.146Z,46.91
2018-03-16T12:45:44.664Z,46.90
2018-03-16T12:46:47.280Z,46.95
2018-03-16T12:47:49.790Z,47.00
2018-03-16T12:48:52.307Z,47.05
2018-03-16T12:49:54.830Z,47.15
2018-03-16T12:50:57.336Z,47.27
2018-03-16T12:51:59.841Z,47.29
2018-03-16T12:53:02.358Z,47.24
2018-03-16T12:54:05.050Z,47.16
2018-03-16T12:55:07.558Z,46.99
2018-03-16T12:56:10.056Z,46.82
2018-03-16T12:57:12.565Z,46.73
2018-03-16T12:58:15.076Z,46.57
2018-03-16T12:59:17.605Z,46.53
2018-03-16T13:00:20.109Z,46.55
2018-03-16T13:01:22.617Z,46.59
2018-03-16T13:02:25.114Z,46.58
2018-03-16T13:03:27.644Z,46.59
2018-03-16T13:04:30.226Z,46.68
2018-03-16T13:05:32.749Z,46.78
2018-03-16T13:06:35.238Z,46.79
2018-03-16T13:07:37.727Z,46.86
2018-03-16T13:08:40.223Z,46.88
2018-03-16T13:09:42.746Z,46.81
2018-03-16T13:10:45.288Z,46.76
2018-03-16T13:11:47.820Z,46.70
2018-03-16T13:12:50.347Z,46.58
2018-03-16T13:13:52.882Z,46.45
2018-03-16T13:14:55.483Z,46.36
2018-03-16T13:15:58.088Z,46.32
2018-03-16T13:17:00.749Z,46.35
2018-03-16T13:18:03.240Z,46.39
2018-03-16T13:19:07.038Z,46.45
2018-03-16T13:20:09.669Z,46.45
2018-03-16T13:21:12.788Z,46.53
2018-03-16T13:22:15.308Z,46.63
2018-03-16T13:23:17.840Z,46.64
2018-03-16T13:24:20.362Z,46.69
2018-03-16T13:25:22.910Z,46.64